sensor_id;sensor_type;location;lat;lon;timestamp;P1;durP1;ratioP1;P2;durP2;ratioP2
39102;SDS011;24847;48.218;16.414;2023-03-14T00:02:59;2.28;;;1.80;;
39102;SDS011;24847;48.218;16.414;2023-03-14T00:08:22;3.72;;;2.17;;
39102;SDS011;24847;48.218;16.414;2023-03-14T00:13:47;2.78;;;1.95;;
39102;SDS011;24847;48.218;16.414;2023-03-14T00:19:10;2.42;;;1.83;;
39102;SDS011;24847;48.218;16.414;2023-03-14T00:24:33;2.42;;;1.88;;
39102;SDS011;24847;48.218;16.414;2023-03-14T00:29:57;2.83;;;1.95;;
39102;SDS011;24847;48.218;16.414;2023-03-14T00:35:19;2.45;;;1.85;;
39102;SDS011;24847;48.218;16.414;2023-03-14T00:40:42;2.92;;;1.80;;
39102;SDS011;24847;48.218;16.414;2023-03-14T00:46:06;2.03;;;1.70;;
39102;SDS011;24847;48.218;16.414;2023-03-14T00:51:29;2.67;;;1.67;;
39102;SDS011;24847;48.218;16.414;2023-03-14T00:56:52;3.00;;;1.77;;
39102;SDS011;24847;48.218;16.414;2023-03-14T01:02:16;2.35;;;1.55;;
39102;SDS011;24847;48.218;16.414;2023-03-14T01:07:39;3.25;;;1.90;;
39102;SDS011;24847;48.218;16.414;2023-03-14T01:13:01;2.85;;;1.63;;
39102;SDS011;24847;48.218;16.414;2023-03-14T01:18:25;3.05;;;1.73;;
39102;SDS011;24847;48.218;16.414;2023-03-14T01:23:48;2.30;;;1.50;;
39102;SDS011;24847;48.218;16.414;2023-03-14T01:29:11;3.03;;;1.30;;
39102;SDS011;24847;48.218;16.414;2023-03-14T01:34:35;2.85;;;1.58;;
39102;SDS011;24847;48.218;16.414;2023-03-14T01:39:57;2.20;;;1.63;;
39102;SDS011;24847;48.218;16.414;2023-03-14T01:51:40;2.50;;;1.60;;
39102;SDS011;24847;48.218;16.414;2023-03-14T01:57:10;2.22;;;1.38;;
39102;SDS011;24847;48.218;16.414;2023-03-14T02:02:36;2.45;;;1.35;;
39102;SDS011;24847;48.218;16.414;2023-03-14T02:08:01;1.95;;;1.50;;
39102;SDS011;24847;48.218;16.414;2023-03-14T02:13:26;2.42;;;1.45;;
39102;SDS011;24847;48.218;16.414;2023-03-14T02:18:49;2.35;;;1.42;;
39102;SDS011;24847;48.218;16.414;2023-03-14T02:24:15;2.53;;;1.90;;
39102;SDS011;24847;48.218;16.414;2023-03-14T02:29:47;3.15;;;1.65;;
39102;SDS011;24847;48.218;16.414;2023-03-14T02:35:14;3.50;;;1.92;;
39102;SDS011;24847;48.218;16.414;2023-03-14T02:40:42;3.40;;;1.98;;
39102;SDS011;24847;48.218;16.414;2023-03-14T02:46:07;3.75;;;1.88;;
39102;SDS011;24847;48.218;16.414;2023-03-14T02:51:32;2.90;;;1.83;;
39102;SDS011;24847;48.218;16.414;2023-03-14T02:56:55;2.38;;;1.98;;
39102;SDS011;24847;48.218;16.414;2023-03-14T03:02:19;2.85;;;1.63;;
39102;SDS011;24847;48.218;16.414;2023-03-14T03:07:42;2.33;;;1.67;;
39102;SDS011;24847;48.218;16.414;2023-03-14T03:13:04;3.15;;;1.70;;
39102;SDS011;24847;48.218;16.414;2023-03-14T03:18:28;3.42;;;2.05;;
39102;SDS011;24847;48.218;16.414;2023-03-14T03:23:50;2.42;;;1.75;;
39102;SDS011;24847;48.218;16.414;2023-03-14T03:29:14;3.90;;;1.60;;
39102;SDS011;24847;48.218;16.414;2023-03-14T03:34:38;2.17;;;1.65;;
39102;SDS011;24847;48.218;16.414;2023-03-14T03:40:01;2.70;;;1.80;;
39102;SDS011;24847;48.218;16.414;2023-03-14T03:45:26;3.15;;;2.00;;
39102;SDS011;24847;48.218;16.414;2023-03-14T03:50:50;2.00;;;1.60;;
39102;SDS011;24847;48.218;16.414;2023-03-14T03:56:12;2.05;;;1.80;;
39102;SDS011;24847;48.218;16.414;2023-03-14T04:01:35;4.35;;;2.20;;
39102;SDS011;24847;48.218;16.414;2023-03-14T04:06:59;2.90;;;1.90;;
39102;SDS011;24847;48.218;16.414;2023-03-14T04:12:21;2.75;;;1.90;;
39102;SDS011;24847;48.218;16.414;2023-03-14T04:17:44;2.70;;;2.03;;
39102;SDS011;24847;48.218;16.414;2023-03-14T04:23:08;15.18;;;8.82;;
39102;SDS011;24847;48.218;16.414;2023-03-14T04:28:31;15.15;;;10.13;;
39102;SDS011;24847;48.218;16.414;2023-03-14T04:33:56;17.02;;;10.35;;
39102;SDS011;24847;48.218;16.414;2023-03-14T04:39:20;6.78;;;5.03;;
39102;SDS011;24847;48.218;16.414;2023-03-14T04:44:42;3.97;;;3.00;;
39102;SDS011;24847;48.218;16.414;2023-03-14T04:50:07;3.20;;;2.28;;
39102;SDS011;24847;48.218;16.414;2023-03-14T04:55:32;3.17;;;2.45;;
39102;SDS011;24847;48.218;16.414;2023-03-14T05:00:56;2.78;;;2.20;;
39102;SDS011;24847;48.218;16.414;2023-03-14T05:06:24;3.72;;;2.30;;
39102;SDS011;24847;48.218;16.414;2023-03-14T05:11:48;3.20;;;2.30;;
39102;SDS011;24847;48.218;16.414;2023-03-14T05:17:10;3.55;;;2.33;;
39102;SDS011;24847;48.218;16.414;2023-03-14T05:22:34;3.67;;;2.70;;
39102;SDS011;24847;48.218;16.414;2023-03-14T05:27:59;3.35;;;2.45;;
39102;SDS011;24847;48.218;16.414;2023-03-14T05:33:21;5.93;;;2.47;;
39102;SDS011;24847;48.218;16.414;2023-03-14T05:38:44;2.92;;;2.53;;
39102;SDS011;24847;48.218;16.414;2023-03-14T05:44:08;3.13;;;2.00;;
39102;SDS011;24847;48.218;16.414;2023-03-14T05:49:30;3.35;;;1.98;;
39102;SDS011;24847;48.218;16.414;2023-03-14T05:54:53;2.42;;;2.10;;
39102;SDS011;24847;48.218;16.414;2023-03-14T06:00:17;3.25;;;2.35;;
39102;SDS011;24847;48.218;16.414;2023-03-14T06:05:41;2.65;;;2.05;;
39102;SDS011;24847;48.218;16.414;2023-03-14T06:11:03;2.88;;;2.22;;
39102;SDS011;24847;48.218;16.414;2023-03-14T06:16:28;5.13;;;2.35;;
39102;SDS011;24847;48.218;16.414;2023-03-14T06:21:52;3.72;;;2.25;;
39102;SDS011;24847;48.218;16.414;2023-03-14T06:27:14;3.03;;;2.08;;
39102;SDS011;24847;48.218;16.414;2023-03-14T06:32:38;3.60;;;2.10;;
39102;SDS011;24847;48.218;16.414;2023-03-14T06:38:01;2.80;;;2.13;;
39102;SDS011;24847;48.218;16.414;2023-03-14T06:43:23;10.45;;;8.75;;
39102;SDS011;24847;48.218;16.414;2023-03-14T06:48:47;6.22;;;4.53;;
39102;SDS011;24847;48.218;16.414;2023-03-14T06:54:10;6.05;;;3.63;;
39102;SDS011;24847;48.218;16.414;2023-03-14T06:59:32;3.28;;;2.80;;
39102;SDS011;24847;48.218;16.414;2023-03-14T07:04:56;4.07;;;2.30;;
39102;SDS011;24847;48.218;16.414;2023-03-14T07:10:19;4.57;;;2.45;;
39102;SDS011;24847;48.218;16.414;2023-03-14T07:15:42;3.50;;;2.13;;
39102;SDS011;24847;48.218;16.414;2023-03-14T07:21:06;4.25;;;2.40;;
39102;SDS011;24847;48.218;16.414;2023-03-14T07:26:29;3.38;;;1.83;;
39102;SDS011;24847;48.218;16.414;2023-03-14T07:31:51;3.95;;;2.13;;
39102;SDS011;24847;48.218;16.414;2023-03-14T07:37:15;3.55;;;2.38;;
39102;SDS011;24847;48.218;16.414;2023-03-14T07:42:38;3.28;;;2.38;;
39102;SDS011;24847;48.218;16.414;2023-03-14T07:48:00;3.95;;;2.38;;
39102;SDS011;24847;48.218;16.414;2023-03-14T07:53:25;2.40;;;1.95;;
39102;SDS011;24847;48.218;16.414;2023-03-14T07:58:47;3.13;;;2.22;;
39102;SDS011;24847;48.218;16.414;2023-03-14T08:04:10;6.90;;;2.63;;
39102;SDS011;24847;48.218;16.414;2023-03-14T08:09:34;6.68;;;2.42;;
39102;SDS011;24847;48.218;16.414;2023-03-14T08:14:57;6.40;;;2.47;;
39102;SDS011;24847;48.218;16.414;2023-03-14T08:20:20;3.78;;;2.38;;
39102;SDS011;24847;48.218;16.414;2023-03-14T08:25:47;3.30;;;2.13;;
39102;SDS011;24847;48.218;16.414;2023-03-14T08:31:11;2.42;;;1.80;;
39102;SDS011;24847;48.218;16.414;2023-03-14T08:36:34;3.60;;;2.08;;
39102;SDS011;24847;48.218;16.414;2023-03-14T08:41:58;2.67;;;1.55;;
39102;SDS011;24847;48.218;16.414;2023-03-14T08:47:21;2.35;;;1.70;;
39102;SDS011;24847;48.218;16.414;2023-03-14T08:52:43;3.60;;;2.00;;
39102;SDS011;24847;48.218;16.414;2023-03-14T08:58:07;3.75;;;1.50;;
39102;SDS011;24847;48.218;16.414;2023-03-14T09:03:30;5.10;;;2.20;;
39102;SDS011;24847;48.218;16.414;2023-03-14T09:08:52;4.43;;;2.17;;
39102;SDS011;24847;48.218;16.414;2023-03-14T09:14:16;7.65;;;2.42;;
39102;SDS011;24847;48.218;16.414;2023-03-14T09:19:39;3.63;;;2.30;;
39102;SDS011;24847;48.218;16.414;2023-03-14T09:25:01;3.05;;;2.05;;
39102;SDS011;24847;48.218;16.414;2023-03-14T09:30:25;3.45;;;2.03;;
39102;SDS011;24847;48.218;16.414;2023-03-14T09:35:48;3.85;;;2.30;;
39102;SDS011;24847;48.218;16.414;2023-03-14T09:41:12;5.10;;;2.35;;
39102;SDS011;24847;48.218;16.414;2023-03-14T09:46:40;7.55;;;2.65;;
39102;SDS011;24847;48.218;16.414;2023-03-14T09:52:05;4.93;;;2.65;;
39102;SDS011;24847;48.218;16.414;2023-03-14T09:57:35;5.45;;;2.38;;
39102;SDS011;24847;48.218;16.414;2023-03-14T10:03:14;8.73;;;3.10;;
39102;SDS011;24847;48.218;16.414;2023-03-14T10:08:46;4.40;;;2.83;;
39102;SDS011;24847;48.218;16.414;2023-03-14T10:14:10;5.70;;;3.05;;
39102;SDS011;24847;48.218;16.414;2023-03-14T10:19:35;9.80;;;2.60;;
39102;SDS011;24847;48.218;16.414;2023-03-14T10:24:59;3.78;;;2.42;;
39102;SDS011;24847;48.218;16.414;2023-03-14T10:30:33;5.90;;;2.95;;
39102;SDS011;24847;48.218;16.414;2023-03-14T10:36:14;3.42;;;2.03;;
39102;SDS011;24847;48.218;16.414;2023-03-14T10:41:41;3.80;;;2.42;;
39102;SDS011;24847;48.218;16.414;2023-03-14T10:47:15;5.18;;;2.13;;
39102;SDS011;24847;48.218;16.414;2023-03-14T10:52:47;1.65;;;1.10;;
39102;SDS011;24847;48.218;16.414;2023-03-14T10:58:18;1.10;;;0.70;;
39102;SDS011;24847;48.218;16.414;2023-03-14T11:03:42;1.85;;;0.68;;
39102;SDS011;24847;48.218;16.414;2023-03-14T11:09:15;1.35;;;0.40;;
39102;SDS011;24847;48.218;16.414;2023-03-14T11:14:46;0.40;;;0.20;;
39102;SDS011;24847;48.218;16.414;2023-03-14T11:20:16;0.47;;;0.28;;
39102;SDS011;24847;48.218;16.414;2023-03-14T11:25:56;0.30;;;0.20;;
39102;SDS011;24847;48.218;16.414;2023-03-14T11:31:35;0.40;;;0.20;;
39102;SDS011;24847;48.218;16.414;2023-03-14T11:37:04;0.50;;;0.20;;
39102;SDS011;24847;48.218;16.414;2023-03-14T11:42:30;0.75;;;0.30;;
39102;SDS011;24847;48.218;16.414;2023-03-14T11:47:55;0.70;;;0.32;;
39102;SDS011;24847;48.218;16.414;2023-03-14T11:53:36;0.50;;;0.30;;
39102;SDS011;24847;48.218;16.414;2023-03-14T11:59:12;2.22;;;0.40;;
39102;SDS011;24847;48.218;16.414;2023-03-14T12:04:42;0.57;;;0.30;;
39102;SDS011;24847;48.218;16.414;2023-03-14T12:10:16;0.85;;;0.40;;
39102;SDS011;24847;48.218;16.414;2023-03-14T12:15:41;0.73;;;0.20;;
39102;SDS011;24847;48.218;16.414;2023-03-14T12:21:11;0.52;;;0.20;;
39102;SDS011;24847;48.218;16.414;2023-03-14T12:26:43;0.40;;;0.20;;
39102;SDS011;24847;48.218;16.414;2023-03-14T12:32:24;2.90;;;0.35;;
39102;SDS011;24847;48.218;16.414;2023-03-14T12:37:47;0.85;;;0.28;;
39102;SDS011;24847;48.218;16.414;2023-03-14T12:43:25;1.02;;;0.30;;
39102;SDS011;24847;48.218;16.414;2023-03-14T12:48:53;1.10;;;0.40;;
39102;SDS011;24847;48.218;16.414;2023-03-14T12:54:27;0.90;;;0.30;;
39102;SDS011;24847;48.218;16.414;2023-03-14T12:59:59;0.52;;;0.22;;
39102;SDS011;24847;48.218;16.414;2023-03-14T13:05:28;0.60;;;0.40;;
39102;SDS011;24847;48.218;16.414;2023-03-14T13:10:51;0.40;;;0.20;;
39102;SDS011;24847;48.218;16.414;2023-03-14T13:16:15;0.20;;;0.20;;
39102;SDS011;24847;48.218;16.414;2023-03-14T13:21:41;0.40;;;0.20;;
39102;SDS011;24847;48.218;16.414;2023-03-14T13:27:03;1.17;;;0.38;;
39102;SDS011;24847;48.218;16.414;2023-03-14T13:32:27;0.30;;;0.20;;
39102;SDS011;24847;48.218;16.414;2023-03-14T13:37:56;0.40;;;0.20;;
39102;SDS011;24847;48.218;16.414;2023-03-14T13:43:23;0.38;;;0.30;;
39102;SDS011;24847;48.218;16.414;2023-03-14T13:48:52;0.35;;;0.20;;
39102;SDS011;24847;48.218;16.414;2023-03-14T13:54:20;1.70;;;0.20;;
39102;SDS011;24847;48.218;16.414;2023-03-14T13:59:43;0.32;;;0.20;;
39102;SDS011;24847;48.218;16.414;2023-03-14T14:05:22;0.30;;;0.20;;
39102;SDS011;24847;48.218;16.414;2023-03-14T14:10:50;0.38;;;0.25;;
39102;SDS011;24847;48.218;16.414;2023-03-14T14:16:19;0.40;;;0.20;;
39102;SDS011;24847;48.218;16.414;2023-03-14T14:21:46;0.65;;;0.30;;
39102;SDS011;24847;48.218;16.414;2023-03-14T14:27:12;0.40;;;0.30;;
39102;SDS011;24847;48.218;16.414;2023-03-14T14:32:38;0.63;;;0.30;;
39102;SDS011;24847;48.218;16.414;2023-03-14T14:38:01;0.40;;;0.20;;
39102;SDS011;24847;48.218;16.414;2023-03-14T14:43:26;0.40;;;0.30;;
39102;SDS011;24847;48.218;16.414;2023-03-14T14:48:50;0.90;;;0.22;;
39102;SDS011;24847;48.218;16.414;2023-03-14T14:54:19;0.50;;;0.30;;
39102;SDS011;24847;48.218;16.414;2023-03-14T14:59:57;0.60;;;0.30;;
39102;SDS011;24847;48.218;16.414;2023-03-14T15:05:27;0.50;;;0.25;;
39102;SDS011;24847;48.218;16.414;2023-03-14T15:10:56;0.57;;;0.30;;
39102;SDS011;24847;48.218;16.414;2023-03-14T15:16:21;1.30;;;0.65;;
39102;SDS011;24847;48.218;16.414;2023-03-14T15:21:46;0.77;;;0.50;;
39102;SDS011;24847;48.218;16.414;2023-03-14T15:27:11;4.63;;;2.60;;
39102;SDS011;24847;48.218;16.414;2023-03-14T15:32:37;1.30;;;0.70;;
39102;SDS011;24847;48.218;16.414;2023-03-14T15:37:59;0.82;;;0.50;;
39102;SDS011;24847;48.218;16.414;2023-03-14T15:43:23;2.88;;;0.43;;
39102;SDS011;24847;48.218;16.414;2023-03-14T15:48:48;1.65;;;0.40;;
39102;SDS011;24847;48.218;16.414;2023-03-14T15:54:12;1.58;;;0.60;;
39102;SDS011;24847;48.218;16.414;2023-03-14T15:59:35;2.13;;;0.93;;
39102;SDS011;24847;48.218;16.414;2023-03-14T16:04:59;2.25;;;1.20;;
39102;SDS011;24847;48.218;16.414;2023-03-14T16:10:21;1.85;;;1.00;;
39102;SDS011;24847;48.218;16.414;2023-03-14T16:15:52;3.40;;;1.30;;
39102;SDS011;24847;48.218;16.414;2023-03-14T16:21:19;1.25;;;0.88;;
39102;SDS011;24847;48.218;16.414;2023-03-14T16:26:42;2.15;;;0.80;;
39102;SDS011;24847;48.218;16.414;2023-03-14T16:32:05;1.02;;;0.60;;
39102;SDS011;24847;48.218;16.414;2023-03-14T16:37:29;1.55;;;0.90;;
39102;SDS011;24847;48.218;16.414;2023-03-14T16:42:52;13.48;;;7.88;;
39102;SDS011;24847;48.218;16.414;2023-03-14T16:48:15;3.42;;;2.45;;
39102;SDS011;24847;48.218;16.414;2023-03-14T16:53:39;2.15;;;1.45;;
39102;SDS011;24847;48.218;16.414;2023-03-14T16:59:03;2.25;;;1.00;;
39102;SDS011;24847;48.218;16.414;2023-03-14T17:04:26;1.90;;;1.02;;
39102;SDS011;24847;48.218;16.414;2023-03-14T17:09:50;1.00;;;0.68;;
39102;SDS011;24847;48.218;16.414;2023-03-14T17:15:14;1.75;;;0.82;;
39102;SDS011;24847;48.218;16.414;2023-03-14T17:20:37;1.58;;;1.10;;
39102;SDS011;24847;48.218;16.414;2023-03-14T17:26:03;1.42;;;1.13;;
39102;SDS011;24847;48.218;16.414;2023-03-14T17:31:27;2.55;;;1.08;;
39102;SDS011;24847;48.218;16.414;2023-03-14T17:36:50;1.98;;;1.08;;
39102;SDS011;24847;48.218;16.414;2023-03-14T17:42:14;2.28;;;1.27;;
39102;SDS011;24847;48.218;16.414;2023-03-14T17:47:38;3.63;;;1.17;;
39102;SDS011;24847;48.218;16.414;2023-03-14T17:53:05;2.50;;;1.17;;
39102;SDS011;24847;48.218;16.414;2023-03-14T17:58:31;2.05;;;0.90;;
39102;SDS011;24847;48.218;16.414;2023-03-14T18:03:57;2.35;;;1.30;;
39102;SDS011;24847;48.218;16.414;2023-03-14T18:09:21;1.30;;;1.00;;
39102;SDS011;24847;48.218;16.414;2023-03-14T18:14:46;4.22;;;1.30;;
39102;SDS011;24847;48.218;16.414;2023-03-14T18:20:11;2.63;;;2.30;;
39102;SDS011;24847;48.218;16.414;2023-03-14T18:25:35;2.83;;;1.63;;
39102;SDS011;24847;48.218;16.414;2023-03-14T18:31:05;3.22;;;1.35;;
39102;SDS011;24847;48.218;16.414;2023-03-14T18:36:30;1.90;;;1.02;;
39102;SDS011;24847;48.218;16.414;2023-03-14T18:41:56;9.10;;;5.45;;
39102;SDS011;24847;48.218;16.414;2023-03-14T18:47:22;4.22;;;3.10;;
39102;SDS011;24847;48.218;16.414;2023-03-14T18:52:46;2.92;;;2.20;;
39102;SDS011;24847;48.218;16.414;2023-03-14T18:58:10;2.53;;;2.00;;
39102;SDS011;24847;48.218;16.414;2023-03-14T19:03:38;1.65;;;0.70;;
39102;SDS011;24847;48.218;16.414;2023-03-14T19:09:03;0.63;;;0.30;;
39102;SDS011;24847;48.218;16.414;2023-03-14T19:14:28;0.70;;;0.30;;
39102;SDS011;24847;48.218;16.414;2023-03-14T19:19:57;0.65;;;0.30;;
39102;SDS011;24847;48.218;16.414;2023-03-14T19:25:21;0.40;;;0.20;;
39102;SDS011;24847;48.218;16.414;2023-03-14T19:30:46;0.40;;;0.30;;
39102;SDS011;24847;48.218;16.414;2023-03-14T19:36:12;0.30;;;0.20;;
39102;SDS011;24847;48.218;16.414;2023-03-14T19:41:49;1.65;;;0.30;;
39102;SDS011;24847;48.218;16.414;2023-03-14T19:47:20;1.00;;;0.40;;
39102;SDS011;24847;48.218;16.414;2023-03-14T19:52:49;1.08;;;0.50;;
39102;SDS011;24847;48.218;16.414;2023-03-14T19:58:15;0.40;;;0.38;;
39102;SDS011;24847;48.218;16.414;2023-03-14T20:03:39;1.95;;;0.65;;
39102;SDS011;24847;48.218;16.414;2023-03-14T20:09:06;1.35;;;0.40;;
39102;SDS011;24847;48.218;16.414;2023-03-14T20:14:33;1.13;;;0.60;;
39102;SDS011;24847;48.218;16.414;2023-03-14T20:20:01;1.42;;;0.60;;
39102;SDS011;24847;48.218;16.414;2023-03-14T20:25:27;1.92;;;0.43;;
39102;SDS011;24847;48.218;16.414;2023-03-14T20:30:52;0.43;;;0.40;;
39102;SDS011;24847;48.218;16.414;2023-03-14T20:36:17;1.23;;;0.50;;
39102;SDS011;24847;48.218;16.414;2023-03-14T20:41:43;2.10;;;0.40;;
39102;SDS011;24847;48.218;16.414;2023-03-14T20:47:08;0.70;;;0.40;;
39102;SDS011;24847;48.218;16.414;2023-03-14T20:52:35;1.23;;;0.40;;
39102;SDS011;24847;48.218;16.414;2023-03-14T20:58:00;0.85;;;0.40;;
39102;SDS011;24847;48.218;16.414;2023-03-14T21:03:29;1.50;;;0.50;;
39102;SDS011;24847;48.218;16.414;2023-03-14T21:08:53;1.92;;;0.50;;
39102;SDS011;24847;48.218;16.414;2023-03-14T21:14:27;1.42;;;0.38;;
39102;SDS011;24847;48.218;16.414;2023-03-14T21:19:51;1.45;;;0.70;;
39102;SDS011;24847;48.218;16.414;2023-03-14T21:25:20;0.68;;;0.40;;
39102;SDS011;24847;48.218;16.414;2023-03-14T21:30:44;0.98;;;0.57;;
39102;SDS011;24847;48.218;16.414;2023-03-14T21:36:10;1.27;;;0.40;;
39102;SDS011;24847;48.218;16.414;2023-03-14T21:41:33;1.10;;;0.50;;
39102;SDS011;24847;48.218;16.414;2023-03-14T21:46:57;0.93;;;0.40;;
39102;SDS011;24847;48.218;16.414;2023-03-14T21:52:22;0.95;;;0.50;;
39102;SDS011;24847;48.218;16.414;2023-03-14T21:57:45;1.02;;;0.43;;
39102;SDS011;24847;48.218;16.414;2023-03-14T22:03:11;1.83;;;0.73;;
39102;SDS011;24847;48.218;16.414;2023-03-14T22:08:34;2.10;;;0.40;;
39102;SDS011;24847;48.218;16.414;2023-03-14T22:13:56;0.85;;;0.50;;
39102;SDS011;24847;48.218;16.414;2023-03-14T22:19:22;0.88;;;0.50;;
39102;SDS011;24847;48.218;16.414;2023-03-14T22:24:44;0.93;;;0.50;;
39102;SDS011;24847;48.218;16.414;2023-03-14T22:30:07;1.83;;;0.60;;
39102;SDS011;24847;48.218;16.414;2023-03-14T22:35:35;1.48;;;0.40;;
39102;SDS011;24847;48.218;16.414;2023-03-14T22:40:58;0.85;;;0.32;;
39102;SDS011;24847;48.218;16.414;2023-03-14T22:46:22;2.25;;;0.40;;
39102;SDS011;24847;48.218;16.414;2023-03-14T22:51:46;1.08;;;0.30;;
39102;SDS011;24847;48.218;16.414;2023-03-14T22:57:08;1.58;;;0.45;;
39102;SDS011;24847;48.218;16.414;2023-03-14T23:02:31;1.30;;;0.50;;
39102;SDS011;24847;48.218;16.414;2023-03-14T23:07:55;0.63;;;0.50;;
39102;SDS011;24847;48.218;16.414;2023-03-14T23:13:18;0.60;;;0.20;;
39102;SDS011;24847;48.218;16.414;2023-03-14T23:18:41;1.10;;;0.40;;
39102;SDS011;24847;48.218;16.414;2023-03-14T23:24:05;1.52;;;0.35;;
39102;SDS011;24847;48.218;16.414;2023-03-14T23:29:29;0.80;;;0.30;;
39102;SDS011;24847;48.218;16.414;2023-03-14T23:34:51;0.80;;;0.40;;
39102;SDS011;24847;48.218;16.414;2023-03-14T23:45:39;0.60;;;0.35;;
39102;SDS011;24847;48.218;16.414;2023-03-14T23:51:03;0.70;;;0.30;;
39102;SDS011;24847;48.218;16.414;2023-03-14T23:56:29;1.75;;;0.40;;
